KLFK

Angelina County Airport

Lufkin, Texas, USA
KLFK 132341Z 1400/1424 21006KT P6SM VCSH SKC FM140300 23006KT 5SM -RA BR OVC015 FM140900 35006KT 4SM -RA BR OVC010 FM141200 36010KT 6SM -RA OVC015
Issued Valid From Valid To
Dec-13 @ 23:41 UTC
(3 hours ago)
Dec-14 @ 00:00 UTC
(3 hours ago)
Dec-15 @ 00:00 UTC
(in 21 hours)
Expired Click to View Dec-14 @ 00:00 to Dec-14 @ 03:00
KLFK 132341Z 1400/1424 21006KT P6SM VCSH SKC
Wind Visibility Clouds
210° at 6 knots Greater than 6 miles
  • Clear skies
From Dec-14 @ 03:00 to Dec-14 @ 09:00
FM140300 23006KT 5SM -RA BR OVC015
Wind Visibility Clouds Conditions
230° at 6 knots 5 miles
  • Overcast at 1,500' AGL
  • Light Rain
  • Mist
From Dec-14 @ 09:00 to Dec-14 @ 12:00
FM140900 35006KT 4SM -RA BR OVC010
Wind Visibility Clouds Conditions
350° at 6 knots 4 miles
  • Overcast at 1,000' AGL
  • Light Rain
  • Mist
From Dec-14 @ 12:00 to Dec-15 @ 00:00
FM141200 36010KT 6SM -RA OVC015
Wind Visibility Clouds Conditions
360° at 10 knots 6 miles
  • Overcast at 1,500' AGL
  • Light Rain
KLFK 132341Z 1400/1424 21006KT P6SM VCSH SKC FM140300 23006KT 5SM -RA BR OVC015 FM140900 35006KT 4SM -RA BR OVC010 FM141200 36010KT 6SM -RA OVC015
Issued Dec-13 @ 23:41 UTC
(3 hours ago)
Valid From Dec-14 @ 00:00 UTC
(3 hours ago)
Valid To Dec-15 @ 00:00 UTC
(in 21 hours)
Dec-14 @ 00:00 - Dec-14 @ 03:00
Wind Visibility
210° at 6 knots Greater than 6 miles
Clouds
  • Clear skies
From Dec-14 @ 03:00 - Dec-14 @ 09:00
Wind Visibility
230° at 6 knots 5 miles
Clouds
  • Overcast at 1,500' AGL
Conditions
  • Light Rain
  • Mist
From Dec-14 @ 09:00 - Dec-14 @ 12:00
Wind Visibility
350° at 6 knots 4 miles
Clouds
  • Overcast at 1,000' AGL
Conditions
  • Light Rain
  • Mist
From Dec-14 @ 12:00 - Dec-15 @ 00:00
Wind Visibility
360° at 10 knots 6 miles
Clouds
  • Overcast at 1,500' AGL
Conditions
  • Light Rain